Time;durP1;ratioP1;P1;durP2;ratioP2;P2;SDS_P1;SDS_P2;PMS_P1;PMS_P2;Temp;Humidity;BMP_temperature;BMP_pressure;BME280_temperature;BME280_humidity;BME280_pressure;Samples;Min_cycle;Max_cycle;Signal;HPM_P1;HPM_P2
2022/01/28 00:02:16;;;;;;;49.00;7.57;;;6.40;99.90;;;;;;5101936;28;20218;-74
2022/01/28 00:04:42;;;;;;;59.63;10.83;;;6.40;99.90;;;;;;5105080;28;20754;-73
2022/01/28 00:07:09;;;;;;;48.07;8.43;;;6.30;99.90;;;;;;5105274;28;20212;-73
2022/01/28 00:09:36;;;;;;;51.90;9.37;;;6.20;99.90;;;;;;5103801;28;20207;-73
2022/01/28 00:12:03;;;;;;;55.70;10.20;;;6.20;99.90;;;;;;5096299;28;20232;-74
2022/01/28 00:14:40;;;;;;;56.77;10.23;;;6.10;99.90;;;;;;5102592;28;20210;-74
2022/01/28 00:17:38;;;;;;;70.80;10.13;;;6.10;99.90;;;;;;5078649;28;20212;-74
2022/01/28 00:20:46;;;;;;;54.73;9.47;;;6.00;99.90;;;;;;5079869;28;20214;-73
2022/01/28 00:37:00;;;;;;;55.37;10.23;;;5.70;99.90;;;;;;5079906;27;20211;-74
2022/01/28 00:39:27;;;;;;;55.83;10.50;;;5.70;99.90;;;;;;5099152;28;20199;-74
2022/01/28 00:41:54;;;;;;;53.13;9.40;;;5.70;99.90;;;;;;5101344;27;20228;-73
2022/01/28 00:44:21;;;;;;;56.27;10.17;;;5.70;99.90;;;;;;5107500;28;20688;-73
2022/01/28 00:46:50;;;;;;;48.77;9.30;;;;;;;;;;5103717;28;20215;-74
2022/01/28 00:49:16;;;;;;;52.70;9.13;;;5.50;99.90;;;;;;5103843;28;20627;-74
2022/01/28 00:51:43;;;;;;;53.90;9.93;;;5.60;99.90;;;;;;5097947;28;20220;-74
2022/01/28 00:54:10;;;;;;;60.77;9.63;;;5.50;99.90;;;;;;5096540;28;20210;-73
2022/01/28 00:56:37;;;;;;;60.30;11.10;;;5.60;99.90;;;;;;5106446;28;20207;-73
2022/01/28 00:59:05;;;;;;;59.53;10.53;;;5.60;99.90;;;;;;5099969;28;20694;-73
2022/01/28 01:01:31;;;;;;;58.40;9.90;;;5.50;99.90;;;;;;5095402;28;20535;-72
2022/01/28 01:04:00;;;;;;;47.63;8.03;;;5.50;99.90;;;;;;5100377;28;20216;-72
2022/01/28 01:06:28;;;;;;;60.97;10.10;;;5.50;99.90;;;;;;5096295;28;20208;-72
2022/01/28 01:08:54;;;;;;;62.57;10.57;;;5.40;99.90;;;;;;5099604;28;20234;-72
2022/01/28 01:11:22;;;;;;;58.57;10.43;;;5.40;99.90;;;;;;5094524;28;20228;-72
2022/01/28 01:13:50;;;;;;;65.33;12.10;;;5.40;99.90;;;;;;5095638;28;20207;-72
2022/01/28 01:16:22;;;;;;;54.67;9.17;;;5.40;99.90;;;;;;5104350;28;20218;-72
2022/01/28 01:18:53;;;;;;;61.63;10.07;;;5.40;99.90;;;;;;5097553;28;20211;-72
2022/01/28 01:21:24;;;;;;;36.37;7.50;;;5.40;99.90;;;;;;5085174;28;20295;-72
2022/01/28 01:23:54;;;;;;;26.27;5.33;;;5.30;99.90;;;;;;5102871;28;20221;-72
2022/01/28 01:26:29;;;;;;;55.23;9.60;;;5.30;99.90;;;;;;5099809;28;20294;-72
2022/01/28 01:28:56;;;;;;;64.43;11.03;;;5.20;99.90;;;;;;5099845;28;20561;-72
2022/01/28 01:31:23;;;;;;;39.83;7.23;;;5.20;99.90;;;;;;5100963;28;20250;-72
2022/01/28 01:33:55;;;;;;;38.40;7.50;;;5.20;99.90;;;;;;5101816;28;20230;-72
2022/01/28 01:36:24;;;;;;;54.93;9.13;;;5.20;99.90;;;;;;5096568;28;20210;-72
2022/01/28 01:38:51;;;;;;;62.23;9.50;;;5.10;99.90;;;;;;5099333;28;20200;-72
2022/01/28 01:41:28;;;;;;;51.00;8.63;;;5.10;99.90;;;;;;5102502;28;20227;-72
2022/01/28 01:44:00;;;;;;;53.67;9.93;;;5.10;99.90;;;;;;5094566;28;20222;-72
2022/01/28 01:46:39;;;;;;;56.13;9.93;;;5.00;99.90;;;;;;5082175;28;20229;-72
2022/01/28 01:52:03;;;;;;;55.33;8.53;;;5.00;99.90;;;;;;5102985;28;20422;-72
2022/01/28 01:54:32;;;;;;;45.07;8.70;;;4.90;99.90;;;;;;5084311;28;20656;-72
2022/01/28 01:56:59;;;;;;;52.20;8.70;;;;;;;;;;5094155;28;20211;-72
2022/01/28 01:59:26;;;;;;;56.77;9.73;;;5.00;99.90;;;;;;5096156;28;20211;-72
2022/01/28 02:01:53;;;;;;;47.97;8.43;;;4.90;99.90;;;;;;5101098;28;20242;-72
2022/01/28 02:04:20;;;;;;;56.40;9.87;;;4.90;99.90;;;;;;5104432;28;20215;-72
2022/01/28 02:06:47;;;;;;;52.63;9.70;;;4.90;99.90;;;;;;5095813;28;20207;-72
2022/01/28 02:09:15;;;;;;;48.83;8.90;;;4.90;99.90;;;;;;5095664;28;20230;-72
2022/01/28 02:11:42;;;;;;;53.37;8.70;;;4.80;99.90;;;;;;5099514;28;20235;-73
2022/01/28 02:14:10;;;;;;;52.97;10.53;;;4.80;99.90;;;;;;5096904;28;20602;-71
2022/01/28 02:16:37;;;;;;;66.93;10.67;;;4.80;99.90;;;;;;5099243;28;20576;-72
2022/01/28 02:19:04;;;;;;;58.70;9.77;;;4.80;99.90;;;;;;5103501;28;20245;-71
2022/01/28 02:21:39;;;;;;;53.60;9.87;;;4.70;99.90;;;;;;5099962;28;20239;-70
2022/01/28 02:24:07;;;;;;;54.97;9.13;;;4.70;99.90;;;;;;5098169;28;20715;-71
2022/01/28 02:26:36;;;;;;;61.63;10.43;;;4.70;99.90;;;;;;5099228;28;20218;-71
2022/01/28 02:29:08;;;;;;;50.97;9.77;;;4.70;99.90;;;;;;5098157;28;20202;-70
2022/01/28 02:31:35;;;;;;;58.87;10.20;;;4.80;99.90;;;;;;5092851;28;20306;-71
2022/01/28 02:34:04;;;;;;;58.83;10.40;;;4.70;99.90;;;;;;5097678;28;20211;-71
2022/01/28 02:36:31;;;;;;;51.60;9.07;;;4.80;99.90;;;;;;5100012;28;20213;-71
2022/01/28 02:39:00;;;;;;;57.60;9.90;;;4.80;99.90;;;;;;5103485;28;20240;-71
2022/01/28 02:41:31;;;;;;;53.67;9.33;;;4.70;99.90;;;;;;5105916;28;20234;-71
2022/01/28 02:44:09;;;;;;;55.37;8.60;;;4.80;99.90;;;;;;5101361;28;20233;-71
2022/01/28 02:46:37;;;;;;;63.37;11.30;;;4.80;99.90;;;;;;5106009;28;20692;-71
2022/01/28 02:49:07;;;;;;;47.73;8.40;;;4.80;99.90;;;;;;5099304;28;20256;-71
2022/01/28 02:51:34;;;;;;;67.43;11.20;;;4.80;99.90;;;;;;5105335;28;20227;-71
2022/01/28 02:54:12;;;;;;;57.67;10.03;;;4.70;99.90;;;;;;5104693;28;20668;-71
2022/01/28 02:56:46;;;;;;;64.00;10.07;;;4.70;99.90;;;;;;5099488;28;20235;-71
2022/01/28 02:59:13;;;;;;;64.17;11.07;;;4.70;99.90;;;;;;5099702;28;20211;-71
2022/01/28 03:01:40;;;;;;;61.87;10.33;;;4.60;99.90;;;;;;5104615;28;20223;-71
2022/01/28 03:04:08;;;;;;;46.00;8.10;;;4.60;99.90;;;;;;5102434;28;20272;-73
2022/01/28 03:06:35;;;;;;;56.97;9.23;;;4.60;99.90;;;;;;5092650;28;20205;-73
2022/01/28 03:09:13;;;;;;;48.77;8.83;;;4.50;99.90;;;;;;5101646;28;20207;-72
2022/01/28 03:11:57;;;;;;;51.93;9.23;;;4.60;99.90;;;;;;5100223;28;20797;-73
2022/01/28 03:14:36;;;;;;;60.37;9.87;;;4.50;99.90;;;;;;5098765;28;20675;-73
2022/01/28 03:17:11;;;;;;;56.87;10.10;;;4.50;99.90;;;;;;5090987;28;20606;-73
2022/01/28 03:19:46;;;;;;;48.07;8.33;;;4.40;99.90;;;;;;5079645;28;20276;-73
2022/01/28 03:22:13;;;;;;;66.97;10.60;;;4.40;99.90;;;;;;5103648;28;20230;-73
2022/01/28 03:24:42;;;;;;;59.07;10.97;;;4.40;99.90;;;;;;5092596;28;20215;-73
2022/01/28 03:27:16;;;;;;;45.70;7.63;;;4.40;99.90;;;;;;5098912;28;20606;-74
2022/01/28 03:29:43;;;;;;;49.13;8.73;;;4.40;99.90;;;;;;5099082;28;20203;-74
2022/01/28 03:32:09;;;;;;;56.03;10.10;;;4.30;99.90;;;;;;5101464;28;20450;-74
2022/01/28 03:34:36;;;;;;;70.87;11.33;;;4.30;99.90;;;;;;5098019;28;20199;-74
2022/01/28 03:37:05;;;;;;;58.43;10.20;;;4.30;99.90;;;;;;5086232;28;20218;-74
2022/01/28 03:39:32;;;;;;;61.43;9.60;;;4.30;99.90;;;;;;5103973;28;20235;-74
2022/01/28 03:42:00;;;;;;;51.80;8.73;;;4.30;99.90;;;;;;5097042;28;20227;-74
2022/01/28 03:44:27;;;;;;;63.63;10.80;;;4.30;99.90;;;;;;5099872;28;20227;-74
2022/01/28 03:46:54;;;;;;;45.43;7.77;;;4.30;99.90;;;;;;5098220;28;20211;-74
2022/01/28 03:49:21;;;;;;;55.30;9.53;;;4.30;99.90;;;;;;5083454;28;20609;-74
2022/01/28 03:51:47;;;;;;;46.30;8.27;;;4.20;99.90;;;;;;5081888;28;20240;-74
2022/01/28 03:54:14;;;;;;;56.10;9.23;;;4.10;99.90;;;;;;5099006;28;20630;-74
2022/01/28 03:56:41;;;;;;;73.00;11.10;;;4.40;99.90;;;;;;5103728;28;20264;-72
2022/01/28 03:59:09;;;;;;;63.97;10.97;;;4.10;99.90;;;;;;5107403;28;20252;-72
2022/01/28 04:01:38;;;;;;;56.33;9.20;;;4.10;99.90;;;;;;5097699;28;20227;-73
2022/01/28 04:12:45;;;;;;;57.90;9.93;;;4.20;99.90;;;;;;5104657;28;20571;-73
2022/01/28 04:15:34;;;;;;;60.07;10.40;;;4.20;99.90;;;;;;5100231;28;20673;-71
2022/01/28 04:18:00;;;;;;;74.40;11.70;;;4.20;99.90;;;;;;5098539;28;20681;-71
2022/01/28 04:20:30;;;;;;;70.63;11.37;;;4.10;99.90;;;;;;5093004;28;20288;-71
2022/01/28 04:22:57;;;;;;;61.43;9.43;;;4.10;99.90;;;;;;5104798;28;20295;-70
2022/01/28 04:25:24;;;;;;;72.30;11.73;;;;;;;;;;5101542;28;20372;-71
2022/01/28 04:27:51;;;;;;;56.07;9.50;;;4.10;99.90;;;;;;5105904;28;20264;-71
2022/01/28 04:30:19;;;;;;;69.17;10.43;;;4.30;99.90;;;;;;5096433;28;20261;-73
2022/01/28 04:32:48;;;;;;;67.00;11.93;;;4.40;99.90;;;;;;5102515;28;20260;-73
2022/01/28 04:35:15;;;;;;;61.07;11.50;;;4.50;99.90;;;;;;5103794;28;20203;-73
2022/01/28 04:37:50;;;;;;;60.30;10.50;;;6.40;99.90;;;;;;5105669;28;20285;-73
2022/01/28 04:40:19;;;;;;;63.47;11.20;;;4.60;99.90;;;;;;5104209;28;20255;-74
2022/01/28 04:42:59;;;;;;;49.73;9.67;;;4.60;99.90;;;;;;5096298;28;20214;-74
2022/01/28 04:45:30;;;;;;;62.43;10.90;;;4.60;99.90;;;;;;5103655;28;20881;-74
2022/01/28 04:48:07;;;;;;;63.07;10.20;;;4.60;99.90;;;;;;5092525;28;20685;-74
2022/01/28 04:50:44;;;;;;;49.70;8.50;;;4.50;99.90;;;;;;5093862;28;20288;-74
2022/01/28 04:53:23;;;;;;;63.67;11.30;;;4.60;99.90;;;;;;5096734;28;20207;-74
2022/01/28 04:56:06;;;;;;;65.13;10.83;;;4.50;99.90;;;;;;5098184;28;20215;-74
2022/01/28 04:58:46;;;;;;;53.33;8.50;;;4.50;99.90;;;;;;5103623;28;20207;-75
2022/01/28 05:04:11;;;;;;;53.70;9.77;;;4.30;99.90;;;;;;5100684;28;20291;-71
2022/01/28 05:07:08;;;;;;;54.13;9.60;;;4.30;99.90;;;;;;5100415;28;20209;-70
2022/01/28 05:10:20;;;;;;;63.27;11.10;;;4.30;99.90;;;;;;5106523;28;20319;-70
2022/01/28 05:26:37;;;;;;;55.70;9.10;;;4.20;99.90;;;;;;5054470;28;20233;-72
2022/01/28 05:29:05;;;;;;;66.17;11.80;;;4.20;99.90;;;;;;5097975;28;20823;-72
2022/01/28 05:31:32;;;;;;;56.47;10.33;;;;;;;;;;5073873;28;20266;-72
2022/01/28 05:34:00;;;;;;;62.13;11.37;;;4.20;99.90;;;;;;5098579;28;20272;-73
2022/01/28 05:36:27;;;;;;;60.13;9.50;;;4.20;99.90;;;;;;5101194;28;20211;-73
2022/01/28 05:38:54;;;;;;;63.27;9.97;;;4.20;99.90;;;;;;5096895;28;20289;-74
2022/01/28 05:41:21;;;;;;;55.27;10.07;;;4.10;99.90;;;;;;5081877;28;20760;-74
2022/01/28 05:43:47;;;;;;;60.70;9.93;;;4.20;99.90;;;;;;5092334;28;20269;-72
2022/01/28 05:46:14;;;;;;;53.63;8.77;;;4.20;99.90;;;;;;5101165;28;20325;-72
2022/01/28 05:48:41;;;;;;;62.00;10.73;;;4.10;99.90;;;;;;5101179;28;20227;-72
2022/01/28 05:51:11;;;;;;;60.33;10.70;;;5.20;99.90;;;;;;5100685;28;20394;-72
2022/01/28 05:53:38;;;;;;;61.27;10.13;;;4.10;99.90;;;;;;5098141;28;20290;-72
2022/01/28 05:56:05;;;;;;;65.77;10.97;;;4.10;99.90;;;;;;5095992;28;20207;-72
2022/01/28 05:58:32;;;;;;;67.07;11.57;;;4.10;99.90;;;;;;5096827;28;20717;-72
2022/01/28 06:00:58;;;;;;;62.20;11.23;;;4.20;99.90;;;;;;5094109;28;20250;-72
2022/01/28 06:03:25;;;;;;;65.63;11.87;;;4.30;99.90;;;;;;5098294;28;20226;-72
2022/01/28 06:05:52;;;;;;;61.90;11.40;;;4.40;99.90;;;;;;5090927;28;20230;-72
2022/01/28 06:08:20;;;;;;;52.20;9.33;;;4.60;99.90;;;;;;5108580;28;20207;-72
2022/01/28 06:10:47;;;;;;;56.00;10.20;;;4.60;99.90;;;;;;5103003;28;20257;-72
2022/01/28 06:13:14;;;;;;;48.03;8.93;;;4.70;99.90;;;;;;5101447;28;20218;-72
2022/01/28 06:15:42;;;;;;;60.23;10.27;;;4.80;99.90;;;;;;5097830;28;20691;-72
2022/01/28 06:18:10;;;;;;;61.00;10.60;;;4.80;99.90;;;;;;5103366;28;20225;-72
2022/01/28 06:20:37;;;;;;;55.83;9.40;;;4.80;99.90;;;;;;5081029;28;20284;-72
2022/01/28 06:23:04;;;;;;;56.47;10.33;;;4.80;99.90;;;;;;5102762;28;20675;-72
2022/01/28 06:25:33;;;;;;;76.27;12.03;;;4.80;99.90;;;;;;5104623;28;20228;-70
2022/01/28 06:27:59;;;;;;;55.97;10.33;;;4.80;99.90;;;;;;5104759;28;20470;-72
2022/01/28 06:30:26;;;;;;;60.50;11.60;;;1.50;99.90;;;;;;5088976;28;20394;-71
2022/01/28 06:32:53;;;;;;;53.53;9.90;;;4.60;99.90;;;;;;5099751;28;20207;-71
2022/01/28 06:35:20;;;;;;;56.73;10.40;;;4.70;99.90;;;;;;5097587;28;20265;-72
2022/01/28 06:37:47;;;;;;;56.93;10.23;;;4.70;99.90;;;;;;5106818;28;20660;-72
2022/01/28 06:40:16;;;;;;;41.00;7.63;;;4.70;99.90;;;;;;5104487;28;20214;-72
2022/01/28 06:42:45;;;;;;;61.90;10.80;;;4.80;99.90;;;;;;5109943;22;20235;-74
2022/01/28 06:45:12;;;;;;;43.90;8.10;;;4.80;99.90;;;;;;5085851;28;20228;-74
2022/01/28 06:47:39;;;;;;;55.67;10.13;;;4.90;99.90;;;;;;5090954;28;20223;-73
2022/01/28 06:50:08;;;;;;;47.77;8.53;;;4.90;99.90;;;;;;5081516;28;20211;-72
2022/01/28 06:52:36;;;;;;;71.57;10.77;;;4.80;99.90;;;;;;5054198;28;20213;-73
2022/01/28 06:55:04;;;;;;;51.90;9.53;;;4.80;99.90;;;;;;5059332;28;20200;-73
2022/01/28 06:57:32;;;;;;;66.50;10.87;;;4.80;99.90;;;;;;5067562;28;20205;-72
2022/01/28 07:00:00;;;;;;;47.77;8.80;;;4.70;99.90;;;;;;5062358;28;20208;-71
2022/01/28 07:02:27;;;;;;;47.37;8.87;;;4.60;99.90;;;;;;5072735;28;20259;-71
2022/01/28 07:04:54;;;;;;;50.00;9.17;;;4.60;99.90;;;;;;5061949;28;20237;-71
2022/01/28 07:07:22;;;;;;;52.70;10.07;;;4.60;99.90;;;;;;5062996;28;20271;-71
2022/01/28 07:09:49;;;;;;;56.43;10.13;;;4.60;99.90;;;;;;5060070;28;20637;-71
2022/01/28 07:12:16;;;;;;;55.53;10.33;;;4.60;99.90;;;;;;5066164;28;20263;-71
2022/01/28 07:14:44;;;;;;;64.47;11.10;;;4.60;99.90;;;;;;5059784;28;20262;-71
2022/01/28 07:17:12;;;;;;;61.93;10.67;;;4.60;99.90;;;;;;5061853;28;20233;-71
2022/01/28 07:19:39;;;;;;;61.40;11.40;;;5.40;99.90;;;;;;5062523;28;20542;-71
2022/01/28 07:22:06;;;;;;;55.03;9.73;;;4.60;99.90;;;;;;5067721;28;20277;-71
2022/01/28 07:24:33;;;;;;;61.60;11.10;;;4.70;99.90;;;;;;5045395;28;20225;-71
2022/01/28 07:27:00;;;;;;;56.67;10.57;;;4.80;99.90;;;;;;5045493;28;20216;-71
2022/01/28 07:29:29;;;;;;;58.33;10.47;;;5.70;99.90;;;;;;5061163;28;20262;-71
2022/01/28 07:31:56;;;;;;;80.67;13.50;;;4.90;99.90;;;;;;5060760;28;20324;-71
2022/01/28 07:34:24;;;;;;;70.23;12.27;;;;;;;;;;5059855;28;20221;-71
2022/01/28 07:36:52;;;;;;;58.10;10.27;;;5.10;99.90;;;;;;5061847;28;20863;-71
2022/01/28 07:39:18;;;;;;;58.87;10.70;;;5.10;99.90;;;;;;5062144;28;20213;-71
2022/01/28 07:41:46;;;;;;;53.83;9.77;;;5.20;99.90;;;;;;5064219;28;20245;-71
2022/01/28 07:44:13;;;;;;;62.97;11.37;;;5.10;99.90;;;;;;5061720;28;20213;-71
2022/01/28 07:46:39;;;;;;;63.27;11.73;;;5.10;99.90;;;;;;5046149;28;20236;-71
2022/01/28 07:49:06;;;;;;;51.50;9.40;;;5.00;99.90;;;;;;5062769;28;20287;-71
2022/01/28 07:51:35;;;;;;;64.67;10.90;;;5.00;99.90;;;;;;5061974;28;20611;-71
2022/01/28 07:54:03;;;;;;;58.67;10.30;;;5.00;99.90;;;;;;5061434;28;20663;-71
2022/01/28 07:56:30;;;;;;;59.43;10.63;;;5.10;99.90;;;;;;5060199;28;20212;-71
2022/01/28 07:58:57;;;;;;;64.47;11.50;;;5.20;99.90;;;;;;5064533;28;20456;-71
2022/01/28 08:01:24;;;;;;;52.27;9.63;;;5.50;99.90;;;;;;5060803;28;20236;-71
2022/01/28 08:03:50;;;;;;;48.10;8.93;;;5.60;99.90;;;;;;5056342;28;20220;-71
2022/01/28 08:06:17;;;;;;;59.00;10.17;;;5.80;99.90;;;;;;5070750;28;20765;-71
2022/01/28 08:08:45;;;;;;;61.17;10.80;;;6.00;99.90;;;;;;5065727;28;20211;-71
2022/01/28 08:11:13;;;;;;;51.07;9.43;;;6.30;99.90;;;;;;5060682;28;20297;-71
2022/01/28 08:13:39;;;;;;;53.00;9.50;;;6.40;99.90;;;;;;5061340;28;20223;-71
2022/01/28 08:16:06;;;;;;;55.83;10.10;;;6.60;99.90;;;;;;5065730;28;20204;-72
2022/01/28 08:18:33;;;;;;;56.13;10.03;;;6.80;99.90;;;;;;5062491;28;20818;-72
2022/01/28 08:21:00;;;;;;;55.37;9.33;;;7.00;99.90;;;;;;5067224;28;20301;-71
2022/01/28 08:23:27;;;;;;;54.90;9.60;;;7.00;99.90;;;;;;5065297;28;20208;-71
2022/01/28 08:25:55;;;;;;;58.73;10.40;;;7.10;99.90;;;;;;5069296;28;20280;-71
2022/01/28 08:28:22;;;;;;;57.13;10.30;;;7.00;99.90;;;;;;5076795;28;20226;-71
2022/01/28 08:30:49;;;;;;;51.13;9.37;;;7.10;99.90;;;;;;5060354;28;20231;-70
2022/01/28 08:33:16;;;;;;;63.17;11.67;;;7.30;99.90;;;;;;5055894;28;20664;-71
2022/01/28 08:35:50;;;;;;;72.63;12.93;;;7.40;99.90;;;;;;5068630;28;20202;-71
2022/01/28 08:38:24;;;;;;;70.53;11.43;;;7.50;99.90;;;;;;5068216;28;20313;-72
2022/01/28 08:40:53;;;;;;;64.43;11.90;;;7.30;99.90;;;;;;5057199;28;20226;-71
2022/01/28 08:43:21;;;;;;;75.70;13.37;;;7.20;99.90;;;;;;5072997;28;20224;-71
2022/01/28 08:45:48;;;;;;;60.53;11.17;;;7.10;99.90;;;;;;5044052;28;20623;-71
2022/01/28 08:48:15;;;;;;;71.03;12.10;;;7.10;99.90;;;;;;5061676;28;20214;-71
2022/01/28 08:50:42;;;;;;;58.47;10.97;;;7.30;99.90;;;;;;5059445;28;20716;-71
2022/01/28 08:53:10;;;;;;;70.40;12.07;;;7.30;99.90;;;;;;5059463;28;20611;-71
2022/01/28 08:55:37;;;;;;;66.17;11.27;;;7.40;99.90;;;;;;5061702;28;20215;-71
2022/01/28 08:58:04;;;;;;;65.63;11.53;;;7.30;99.90;;;;;;5062060;28;20778;-71
2022/01/28 09:00:33;;;;;;;66.87;12.30;;;7.40;99.90;;;;;;5055711;28;20561;-71
2022/01/28 09:03:00;;;;;;;62.60;11.70;;;7.40;99.90;;;;;;5053912;28;20870;-71
2022/01/28 09:05:28;;;;;;;65.10;10.60;;;7.40;99.90;;;;;;5059625;28;20695;-71
2022/01/28 09:07:55;;;;;;;54.30;10.33;;;7.50;99.90;;;;;;5060469;28;20293;-71
2022/01/28 09:10:29;;;;;;;56.70;9.83;;;7.50;99.90;;;;;;5073843;28;20363;-71
2022/01/28 09:13:22;;;;;;;59.33;9.97;;;7.40;99.90;;;;;;5042838;28;20305;-71
2022/01/28 09:15:51;;;;;;;52.67;10.57;;;7.40;99.90;;;;;;5075964;28;20292;-71
2022/01/28 09:18:19;;;;;;;65.60;12.17;;;7.50;99.90;;;;;;5067847;28;20303;-72
2022/01/28 09:20:46;;;;;;;51.80;9.33;;;7.60;99.90;;;;;;5044552;28;20243;-71
2022/01/28 09:23:13;;;;;;;74.67;13.63;;;7.70;99.90;;;;;;5064269;28;20227;-71
2022/01/28 09:25:40;;;;;;;56.33;10.53;;;7.70;99.90;;;;;;5078227;28;20226;-72
2022/01/28 09:28:08;;;;;;;55.87;10.90;;;7.90;99.90;;;;;;5071796;28;20648;-71
2022/01/28 09:33:18;;;;;;;67.90;12.57;;;8.00;99.90;;;;;;5248617;22;20234;-71
2022/01/28 09:35:45;;;;;;;67.00;12.03;;;8.00;99.90;;;;;;5059948;28;20893;-71
2022/01/28 09:38:13;;;;;;;60.27;11.80;;;7.90;99.90;;;;;;5064789;28;20208;-71
2022/01/28 09:40:40;;;;;;;53.80;9.60;;;8.00;99.90;;;;;;5064972;28;20287;-71
2022/01/28 09:43:08;;;;;;;54.07;9.90;;;7.90;99.90;;;;;;5049566;28;20219;-70
2022/01/28 09:45:35;;;;;;;65.23;10.80;;;8.00;99.90;;;;;;5063645;28;20288;-72
2022/01/28 09:48:03;;;;;;;66.57;11.40;;;8.00;99.90;;;;;;5059860;28;20232;-74
2022/01/28 09:50:33;;;;;;;69.20;12.53;;;8.00;99.90;;;;;;5054287;28;20240;-74
2022/01/28 09:53:01;;;;;;;57.13;10.83;;;8.00;99.90;;;;;;5051672;28;20625;-74
2022/01/28 09:55:28;;;;;;;69.50;13.33;;;8.00;99.90;;;;;;5066413;28;20566;-74
2022/01/28 09:57:59;;;;;;;59.13;11.57;;;8.00;99.90;;;;;;5058118;28;20260;-74
2022/01/28 10:00:27;;;;;;;59.33;11.03;;;8.20;99.90;;;;;;5076829;22;20733;-91
2022/01/28 10:02:57;;;;;;;64.10;11.67;;;8.10;99.90;;;;;;5065967;28;20211;-89
2022/01/28 10:05:27;;;;;;;58.37;10.47;;;8.10;99.90;;;;;;5087008;28;20223;-90
2022/01/28 10:08:10;;;;;;;50.70;9.70;;;8.20;99.90;;;;;;5067067;28;20207;-90
2022/01/28 10:10:47;;;;;;;50.73;9.43;;;8.20;99.90;;;;;;5050881;28;20763;-90
2022/01/28 10:13:19;;;;;;;61.07;11.40;;;8.50;99.90;;;;;;5065252;28;20212;-90
2022/01/28 10:15:55;;;;;;;60.33;11.57;;;8.60;99.90;;;;;;5064253;28;20290;-89
2022/01/28 10:18:36;;;;;;;67.83;12.93;;;8.60;99.90;;;;;;5066931;28;20227;-91
2022/01/28 10:21:25;;;;;;;47.30;8.80;;;8.60;99.90;;;;;;5045395;28;20219;-91
2022/01/28 10:24:09;;;;;;;51.07;9.30;;;8.80;99.90;;;;;;5064927;28;20202;-90
2022/01/28 10:26:39;;;;;;;64.83;11.07;;;8.80;99.90;;;;;;5043891;28;20288;-91
2022/01/28 10:29:06;;;;;;;71.87;13.63;;;;;;;;;;5052741;28;20239;-88
2022/01/28 10:31:39;;;;;;;62.50;11.03;;;9.00;99.90;;;;;;5059285;28;20217;-90
2022/01/28 10:34:15;;;;;;;32.57;6.67;;;9.30;99.90;;;;;;5076848;28;20210;-91
2022/01/28 10:36:44;;;;;;;99.87;17.73;;;9.40;99.90;;;;;;5064033;28;20443;-89
2022/01/28 10:39:17;;;;;;;69.63;12.37;;;9.50;99.90;;;;;;5081939;28;20218;-90
2022/01/28 10:41:56;;;;;;;58.60;10.67;;;9.70;99.90;;;;;;5063386;28;20210;-90
2022/01/28 10:44:25;;;;;;;63.60;10.73;;;9.80;99.90;;;;;;5081751;28;20222;-91
2022/01/28 10:46:58;;;;;;;59.90;10.77;;;10.00;99.90;;;;;;5071603;28;20307;-91
2022/01/28 10:49:33;;;;;;;67.07;11.77;;;10.00;99.90;;;;;;5065244;28;20240;-91
2022/01/28 10:52:07;;;;;;;50.87;9.90;;;10.00;99.90;;;;;;5055944;28;20738;-90
2022/01/28 10:54:36;;;;;;;60.10;10.67;;;;;;;;;;5052633;28;20212;-91
2022/01/28 10:57:05;;;;;;;60.27;10.83;;;9.80;99.90;;;;;;5051878;28;20598;-90
2022/01/28 10:59:36;;;;;;;57.23;10.40;;;9.70;99.90;;;;;;5064436;28;20227;-91
2022/01/28 11:02:05;;;;;;;58.30;9.47;;;9.70;99.90;;;;;;5057782;28;20730;-90
2022/01/28 11:04:33;;;;;;;36.67;6.97;;;;;;;;;;5069340;28;20590;-90
2022/01/28 11:07:02;;;;;;;51.00;9.20;;;;;;;;;;5046812;28;20221;-89
2022/01/28 11:09:30;;;;;;;77.60;13.27;;;;;;;;;;5059729;28;20235;-91
2022/01/28 11:12:00;;;;;;;47.73;8.27;;;9.60;99.90;;;;;;5063487;28;20220;-91
2022/01/28 11:14:27;;;;;;;46.80;8.80;;;;;;;;;;5058700;28;20212;-90
2022/01/28 11:16:55;;;;;;;49.03;8.77;;;9.50;99.90;;;;;;5038612;28;20214;-90
2022/01/28 11:19:24;;;;;;;70.70;12.73;;;9.40;99.90;;;;;;5068775;28;20269;-91
2022/01/28 11:22:11;;;;;;;65.00;10.97;;;9.30;99.90;;;;;;5049305;28;20622;-90
2022/01/28 11:25:10;;;;;;;62.70;10.80;;;9.40;99.90;;;;;;5070004;28;20216;-90
2022/01/28 11:27:40;;;;;;;67.27;11.07;;;9.50;99.90;;;;;;5048642;28;20216;-89
2022/01/28 11:30:25;;;;;;;54.60;10.10;;;9.60;99.90;;;;;;5038674;28;20217;-88
2022/01/28 11:33:01;;;;;;;56.20;10.87;;;10.00;99.90;;;;;;5057718;28;20215;-90
2022/01/28 11:35:29;;;;;;;62.87;10.47;;;;;;;;;;5042133;28;20219;-90
2022/01/28 11:38:02;;;;;;;66.27;11.83;;;10.50;99.90;;;;;;5068467;28;20224;-89
2022/01/28 11:40:44;;;;;;;45.23;8.60;;;10.50;99.90;;;;;;5075268;28;20276;-89
2022/01/28 11:43:23;;;;;;;50.30;9.33;;;10.60;99.90;;;;;;5066003;28;20256;-89
2022/01/28 11:46:05;;;;;;;51.73;9.83;;;10.60;99.90;;;;;;5069443;28;20261;-88
2022/01/28 11:49:14;;;;;;;59.60;11.40;;;11.00;99.90;;;;;;5065311;28;20236;-89
2022/01/28 11:51:43;;;;;;;57.87;11.03;;;11.40;99.90;;;;;;5037605;28;20199;-90
2022/01/28 11:54:12;;;;;;;58.93;10.97;;;11.50;99.90;;;;;;5048840;28;20209;-89
2022/01/28 11:56:40;;;;;;;52.17;9.97;;;11.80;99.90;;;;;;5069107;28;20283;-89
2022/01/28 11:59:14;;;;;;;51.10;9.83;;;11.80;99.90;;;;;;5053955;28;20362;-88
2022/01/28 12:02:10;;;;;;;49.80;9.90;;;12.20;99.90;;;;;;5071908;28;20365;-90
2022/01/28 12:04:41;;;;;;;63.00;11.13;;;11.80;99.90;;;;;;5061706;28;20574;-89
2022/01/28 12:07:13;;;;;;;50.27;9.30;;;12.70;99.90;;;;;;5070384;28;20229;-90
2022/01/28 12:09:42;;;;;;;49.20;9.13;;;12.60;99.90;;;;;;5066139;28;20252;-89
2022/01/28 12:12:11;;;;;;;62.33;11.47;;;12.70;99.90;;;;;;5056329;28;20209;-89
2022/01/28 12:15:00;;;;;;;68.40;12.87;;;12.70;99.90;;;;;;5057545;28;20250;-89
2022/01/28 12:17:48;;;;;;;47.33;9.10;;;12.60;99.90;;;;;;5046722;28;20212;-89
2022/01/28 12:20:35;;;;;;;48.17;9.47;;;12.60;99.90;;;;;;5049852;28;20299;-89
2022/01/28 12:23:04;;;;;;;51.03;9.57;;;12.50;99.90;;;;;;5061883;28;20317;-88
2022/01/28 12:25:48;;;;;;;72.20;11.87;;;12.50;99.90;;;;;;5068009;28;20269;-88
2022/01/28 12:28:18;;;;;;;66.60;11.60;;;12.00;99.90;;;;;;5054814;28;20321;-89
2022/01/28 12:30:48;;;;;;;43.77;8.23;;;11.90;99.90;;;;;;5068982;28;20217;-88
2022/01/28 12:33:15;;;;;;;44.23;9.50;;;12.00;99.90;;;;;;5062556;28;20205;-89
2022/01/28 12:35:43;;;;;;;50.27;10.47;;;12.10;99.90;;;;;;5060945;28;20208;-89
2022/01/28 12:38:13;;;;;;;59.90;14.13;;;12.20;99.90;;;;;;5069633;28;20232;-89
2022/01/28 12:40:47;;;;;;;55.00;10.47;;;;;;;;;;5055856;28;20212;-89
2022/01/28 12:43:19;;;;;;;48.23;9.47;;;12.10;99.90;;;;;;5057096;28;20224;-89
2022/01/28 12:45:58;;;;;;;42.50;8.07;;;12.30;99.90;;;;;;5065556;28;20282;-90
2022/01/28 12:48:25;;;;;;;54.97;10.57;;;12.50;99.90;;;;;;5052487;28;21131;-89
2022/01/28 12:50:53;;;;;;;60.93;10.37;;;;;;;;;;5057051;28;20243;-89
2022/01/28 12:53:31;;;;;;;54.87;9.67;;;12.70;99.90;;;;;;5044067;28;20221;-89
2022/01/28 12:55:59;;;;;;;52.93;10.10;;;;;;;;;;5047715;28;20219;-90
2022/01/28 12:58:34;;;;;;;68.03;12.00;;;13.40;99.90;;;;;;5049663;28;20239;-89
2022/01/28 13:01:07;;;;;;;44.97;8.47;;;;;;;;;;5060330;28;20262;-89
2022/01/28 13:03:45;;;;;;;60.17;11.53;;;;;;;;;;5072454;28;20341;-91
2022/01/28 13:06:26;;;;;;;53.57;9.57;;;12.60;99.90;;;;;;5047780;28;20273;-89
2022/01/28 13:08:54;;;;;;;62.60;11.27;;;11.90;99.90;;;;;;5060657;28;20319;-90
2022/01/28 13:11:23;;;;;;;62.77;11.27;;;;;;;;;;5046209;28;20216;-90
2022/01/28 13:13:52;;;;;;;64.37;11.33;;;11.70;99.90;;;;;;5065882;28;20324;-90
2022/01/28 13:16:32;;;;;;;48.07;9.47;;;;;;;;;;5042419;28;20216;-89
2022/01/28 13:19:00;;;;;;;50.60;9.03;;;11.00;99.90;;;;;;5046082;28;20239;-89
2022/01/28 13:21:27;;;;;;;57.10;10.27;;;10.90;99.90;;;;;;5066183;28;20205;-89
2022/01/28 13:24:06;;;;;;;58.07;10.20;;;10.80;99.90;;;;;;5045892;28;20621;-90
2022/01/28 13:26:33;;;;;;;63.47;10.23;;;;;;;;;;5045992;28;20607;-90
2022/01/28 13:29:09;;;;;;;53.27;9.60;;;10.60;99.90;;;;;;5051730;28;20259;-89
2022/01/28 13:31:38;;;;;;;59.37;10.80;;;;;;;;;;5063590;28;20200;-87
2022/01/28 13:34:10;;;;;;;45.13;7.50;;;10.70;99.90;;;;;;5075544;28;20204;-87
2022/01/28 13:36:49;;;;;;;38.90;7.10;;;10.50;99.90;;;;;;5081476;28;20231;-89
2022/01/28 13:39:19;;;;;;;53.20;9.73;;;10.30;99.90;;;;;;5068475;28;20232;-87
2022/01/28 13:41:50;;;;;;;52.17;9.57;;;10.30;99.90;;;;;;5060666;28;20949;-88
2022/01/28 13:44:25;;;;;;;55.97;9.10;;;9.90;99.90;;;;;;5065144;28;20272;-87
2022/01/28 13:46:59;;;;;;;46.43;8.20;;;9.90;99.90;;;;;;5060722;28;20223;-87
2022/01/28 13:49:30;;;;;;;57.77;9.80;;;9.80;99.90;;;;;;5069273;28;20256;-88